createdAt,value
2023-04-24T00:01:37.940Z,57.00
2023-04-24T00:04:05.183Z,58.10
2023-04-24T00:06:34.753Z,58.30
2023-04-24T00:09:02.298Z,58.00
2023-04-24T00:11:29.505Z,59.10
2023-04-24T00:13:57.579Z,58.60
2023-04-24T00:16:24.719Z,59.20
2023-04-24T00:18:53.738Z,57.90
2023-04-24T00:21:21.465Z,58.00
2023-04-24T00:23:48.897Z,57.70
2023-04-24T00:26:15.973Z,57.70
2023-04-24T00:28:42.959Z,57.90
2023-04-24T00:31:09.954Z,58.30
2023-04-24T00:33:37.273Z,59.20
2023-04-24T00:36:04.400Z,58.30
2023-04-24T00:38:31.362Z,57.70
2023-04-24T00:40:58.284Z,58.70
2023-04-24T00:43:25.716Z,59.40
2023-04-24T00:45:52.820Z,57.70
2023-04-24T00:48:21.371Z,59.30
2023-04-24T00:50:48.383Z,58.70
2023-04-24T00:53:15.735Z,58.80
2023-04-24T00:55:42.785Z,58.50
2023-04-24T00:58:10.108Z,59.60
2023-04-24T01:00:37.163Z,58.50
2023-04-24T01:03:06.188Z,58.40
2023-04-24T01:05:35.032Z,58.90
2023-04-24T01:08:03.507Z,59.40
2023-04-24T01:10:32.813Z,58.50
2023-04-24T01:13:00.655Z,59.10
2023-04-24T01:15:27.782Z,58.70
2023-04-24T01:17:54.824Z,59.40
2023-04-24T01:20:22.132Z,59.10
2023-04-24T01:22:49.318Z,59.60
2023-04-24T01:25:16.515Z,59.50
2023-04-24T01:27:43.625Z,59.10
2023-04-24T01:30:13.313Z,59.50
2023-04-24T01:32:41.353Z,58.80
2023-04-24T01:35:09.301Z,59.00
2023-04-24T01:37:38.266Z,59.50
2023-04-24T01:40:07.797Z,59.10
2023-04-24T01:42:36.058Z,60.00
2023-04-24T01:45:05.117Z,59.10
2023-04-24T01:47:33.091Z,60.20
2023-04-24T01:50:00.246Z,59.10
2023-04-24T01:52:28.170Z,59.00
2023-04-24T01:54:56.780Z,59.30
2023-04-24T01:57:24.387Z,60.00
2023-04-24T01:59:52.117Z,59.10
2023-04-24T02:02:19.614Z,59.60
2023-04-24T02:04:46.664Z,59.20
2023-04-24T02:07:13.577Z,60.40
2023-04-24T02:09:40.643Z,60.30
2023-04-24T02:12:07.721Z,61.50
2023-04-24T02:14:34.824Z,60.50
2023-04-24T02:17:01.772Z,59.20
2023-04-24T02:19:29.413Z,60.90
2023-04-24T02:21:56.336Z,60.90
2023-04-24T02:24:23.335Z,60.00
2023-04-24T02:26:50.337Z,60.00
2023-04-24T02:29:17.279Z,60.50
2023-04-24T02:31:44.389Z,59.80
2023-04-24T02:34:12.265Z,59.10
2023-04-24T02:36:39.590Z,61.20
2023-04-24T02:39:06.645Z,59.80
2023-04-24T02:41:33.799Z,59.90
2023-04-24T02:44:00.864Z,59.00
2023-04-24T02:46:27.902Z,60.00
2023-04-24T02:48:54.964Z,60.30
2023-04-24T02:51:22.067Z,59.70
2023-04-24T02:53:49.235Z,59.70
2023-04-24T02:56:16.256Z,60.60
2023-04-24T02:58:43.491Z,58.90
2023-04-24T03:01:11.215Z,59.90
2023-04-24T03:03:40.096Z,60.20
2023-04-24T03:06:09.012Z,59.80
2023-04-24T03:08:36.565Z,60.10
2023-04-24T03:11:04.280Z,60.30
2023-04-24T03:13:32.329Z,59.60
2023-04-24T03:15:59.311Z,60.80
2023-04-24T03:18:28.380Z,60.20
2023-04-24T03:20:55.623Z,61.20
2023-04-24T03:23:22.913Z,59.40
2023-04-24T03:25:49.889Z,61.20
2023-04-24T03:28:20.569Z,59.90
2023-04-24T03:30:58.751Z,59.80
2023-04-24T03:33:31.994Z,60.30
2023-04-24T03:36:02.383Z,60.20
2023-04-24T03:38:37.172Z,60.60
2023-04-24T03:41:19.997Z,60.50
2023-04-24T03:43:50.744Z,60.60
2023-04-24T03:46:17.918Z,61.00
2023-04-24T03:48:51.738Z,60.40
2023-04-24T03:51:21.655Z,61.60
2023-04-24T03:53:51.336Z,59.80
2023-04-24T03:56:21.602Z,60.50
2023-04-24T03:58:48.692Z,61.30
2023-04-24T04:01:17.163Z,60.80
2023-04-24T04:03:52.468Z,61.60
2023-04-24T04:06:23.058Z,61.10
2023-04-24T04:08:52.419Z,61.30
2023-04-24T04:11:19.380Z,60.70
2023-04-24T04:13:48.896Z,61.80
2023-04-24T04:16:18.727Z,61.80
2023-04-24T04:18:47.718Z,61.80
2023-04-24T04:21:14.957Z,61.80
2023-04-24T04:23:42.671Z,61.40
2023-04-24T04:26:22.174Z,61.30
2023-04-24T04:29:02.204Z,61.70
2023-04-24T04:31:31.230Z,61.10
2023-04-24T04:34:02.601Z,61.40
2023-04-24T04:36:32.281Z,61.80
2023-04-24T04:39:08.596Z,61.70
2023-04-24T04:41:55.579Z,61.60
2023-04-24T04:44:30.253Z,61.20
2023-04-24T04:46:58.505Z,61.70
2023-04-24T04:49:29.509Z,62.60
2023-04-24T04:51:57.536Z,61.50
2023-04-24T04:54:26.666Z,62.00
2023-04-24T04:56:54.415Z,62.00
2023-04-24T04:59:21.992Z,62.60
2023-04-24T05:01:52.401Z,63.10
2023-04-24T05:04:19.737Z,62.70
2023-04-24T05:06:48.432Z,63.30
2023-04-24T05:09:16.119Z,60.80
2023-04-24T05:11:53.341Z,66.30
2023-04-24T05:14:21.824Z,67.60
2023-04-24T05:16:50.253Z,67.10
2023-04-24T05:19:20.110Z,66.30
2023-04-24T05:21:47.322Z,66.00
2023-04-24T05:24:14.301Z,67.10
2023-04-24T05:27:00.219Z,65.70
2023-04-24T05:29:34.356Z,64.90
2023-04-24T05:32:01.780Z,64.40
2023-04-24T05:34:31.065Z,64.20
2023-04-24T05:36:58.672Z,63.10
2023-04-24T05:39:26.454Z,63.80
2023-04-24T05:41:54.669Z,62.40
2023-04-24T05:44:21.830Z,63.70
2023-04-24T05:46:49.174Z,63.90
2023-04-24T05:49:17.584Z,62.60
2023-04-24T05:51:46.073Z,63.00
2023-04-24T05:54:13.474Z,63.00
2023-04-24T05:56:43.190Z,62.30
2023-04-24T05:59:13.504Z,62.40
2023-04-24T06:01:41.728Z,62.80
2023-04-24T06:04:17.101Z,62.60
2023-04-24T06:06:44.275Z,62.40
2023-04-24T06:09:11.250Z,62.40
2023-04-24T06:11:38.243Z,62.00
2023-04-24T06:14:06.170Z,62.40
2023-04-24T06:16:40.024Z,62.80
2023-04-24T06:19:17.894Z,61.50
2023-04-24T06:21:44.963Z,62.80
2023-04-24T06:24:12.079Z,61.80
2023-04-24T06:26:39.041Z,61.30
2023-04-24T06:29:08.466Z,61.80
2023-04-24T06:31:38.123Z,62.30
2023-04-24T06:34:06.005Z,61.80
2023-04-24T06:36:35.551Z,62.60
2023-04-24T06:39:02.844Z,61.60
2023-04-24T06:41:30.597Z,61.90
2023-04-24T06:43:57.514Z,63.20
2023-04-24T06:46:27.168Z,62.50
2023-04-24T06:48:57.550Z,62.30
2023-04-24T06:51:25.358Z,62.20
2023-04-24T06:53:55.577Z,62.60
2023-04-24T06:56:23.305Z,62.20
2023-04-24T06:58:50.510Z,62.60
2023-04-24T07:01:17.504Z,61.30
2023-04-24T07:03:44.587Z,62.70
2023-04-24T07:06:15.473Z,62.30
2023-04-24T07:08:43.106Z,62.00
2023-04-24T07:11:10.065Z,61.90
2023-04-24T07:13:37.110Z,61.50
2023-04-24T07:16:04.266Z,61.70
2023-04-24T07:18:31.614Z,61.20
2023-04-24T07:20:58.804Z,62.10
2023-04-24T07:23:25.971Z,61.80
2023-04-24T07:25:52.934Z,62.60
2023-04-24T07:28:19.983Z,61.90
2023-04-24T07:30:46.884Z,62.10
2023-04-24T07:33:14.465Z,62.80
2023-04-24T07:35:41.490Z,62.40
2023-04-24T07:38:08.457Z,63.50
2023-04-24T07:40:35.448Z,63.00
2023-04-24T07:43:02.464Z,63.20
2023-04-24T07:45:29.551Z,61.90
2023-04-24T07:47:57.432Z,63.10
2023-04-24T07:50:24.512Z,62.40
2023-04-24T07:52:51.630Z,62.40
2023-04-24T07:55:19.889Z,63.00
2023-04-24T07:57:48.904Z,63.10
2023-04-24T08:00:16.269Z,61.90
2023-04-24T08:02:43.467Z,62.50
2023-04-24T08:05:11.179Z,62.60
2023-04-24T08:07:38.981Z,62.50
2023-04-24T08:10:06.655Z,63.00
2023-04-24T08:12:33.650Z,62.00
2023-04-24T08:15:00.852Z,60.60
2023-04-24T08:17:27.915Z,61.70
2023-04-24T08:20:02.186Z,61.70
2023-04-24T08:22:29.675Z,62.00
2023-04-24T08:24:58.033Z,61.30
2023-04-24T08:27:25.276Z,61.80
2023-04-24T08:29:53.938Z,60.70
2023-04-24T08:32:21.064Z,61.10
2023-04-24T08:34:49.659Z,60.70
2023-04-24T08:37:17.139Z,60.00
2023-04-24T08:39:44.269Z,59.70
2023-04-24T08:42:14.135Z,60.90
2023-04-24T08:44:41.388Z,61.80
2023-04-24T08:47:09.332Z,60.40
2023-04-24T08:49:38.702Z,61.70
2023-04-24T08:52:08.759Z,61.60
2023-04-24T08:54:37.023Z,61.80
2023-04-24T08:57:05.014Z,60.80
2023-04-24T08:59:32.855Z,60.60
2023-04-24T09:02:02.369Z,59.70
2023-04-24T09:04:31.270Z,60.70
2023-04-24T09:06:59.555Z,61.50
2023-04-24T09:09:27.207Z,60.30
2023-04-24T09:11:58.265Z,60.10
2023-04-24T09:14:25.551Z,60.10
2023-04-24T09:16:53.865Z,59.40
2023-04-24T09:19:22.785Z,59.10
2023-04-24T09:21:49.821Z,58.10
2023-04-24T09:24:21.262Z,58.30
2023-04-24T09:26:48.358Z,57.30
2023-04-24T09:29:17.906Z,58.10
2023-04-24T09:31:46.711Z,57.40
2023-04-24T09:34:14.640Z,58.50
2023-04-24T09:36:43.843Z,58.40
2023-04-24T09:39:13.404Z,59.30
2023-04-24T09:41:50.234Z,57.80
2023-04-24T09:44:19.035Z,58.20
2023-04-24T09:46:50.710Z,59.40
2023-04-24T09:49:23.247Z,58.80
2023-04-24T09:51:50.367Z,58.40
2023-04-24T09:54:22.164Z,58.10
2023-04-24T09:56:51.584Z,57.00
2023-04-24T09:59:20.758Z,57.30
2023-04-24T10:01:49.658Z,55.40
2023-04-24T10:04:22.378Z,55.40
2023-04-24T10:06:50.661Z,56.20
2023-04-24T10:09:23.005Z,55.90
2023-04-24T10:11:52.188Z,56.70
2023-04-24T10:14:24.389Z,56.70
2023-04-24T10:16:54.462Z,56.20
2023-04-24T10:19:21.506Z,56.50
2023-04-24T10:21:48.740Z,55.20
2023-04-24T10:24:18.883Z,58.00
2023-04-24T10:26:47.120Z,57.20
2023-04-24T10:29:18.828Z,56.90
2023-04-24T10:31:48.747Z,57.10
2023-04-24T10:34:18.647Z,54.40
2023-04-24T10:37:04.487Z,55.00
2023-04-24T10:39:34.480Z,55.80
2023-04-24T10:42:01.791Z,56.60
2023-04-24T10:44:37.990Z,55.80
2023-04-24T10:47:05.320Z,54.60
2023-04-24T10:49:33.124Z,56.20
2023-04-24T10:52:06.747Z,55.40
2023-04-24T10:54:41.526Z,55.70
2023-04-24T10:57:20.763Z,55.60
2023-04-24T10:59:49.456Z,56.00
2023-04-24T11:02:17.483Z,57.60
2023-04-24T11:04:46.129Z,56.10
2023-04-24T11:07:13.754Z,56.30
2023-04-24T11:09:44.247Z,54.70
2023-04-24T11:12:13.845Z,55.90
2023-04-24T11:14:59.574Z,56.00
2023-04-24T11:17:39.220Z,55.30
2023-04-24T11:20:27.805Z,56.00
2023-04-24T11:22:56.511Z,55.10
2023-04-24T11:25:23.961Z,55.90
2023-04-24T11:27:51.400Z,57.40
2023-04-24T11:30:20.462Z,55.70
2023-04-24T11:32:52.598Z,55.60
2023-04-24T11:35:22.378Z,55.50
2023-04-24T11:40:23.893Z,57.10
2023-04-24T11:42:52.187Z,54.80
2023-04-24T11:45:27.219Z,55.20
2023-04-24T11:47:54.857Z,55.40
2023-04-24T11:50:24.734Z,56.60
2023-04-24T11:52:52.252Z,55.80
2023-04-24T11:55:29.064Z,54.40
2023-04-24T11:57:58.663Z,54.40
2023-04-24T12:00:28.522Z,54.00
2023-04-24T12:03:10.257Z,53.60
2023-04-24T12:05:37.880Z,52.50
2023-04-24T12:08:05.978Z,55.20
2023-04-24T12:10:34.135Z,55.20
2023-04-24T12:13:01.582Z,55.20
2023-04-24T12:15:28.957Z,56.50
2023-04-24T12:17:57.432Z,56.30
2023-04-24T12:20:34.196Z,55.10
2023-04-24T12:23:02.305Z,56.40
2023-04-24T12:25:32.098Z,52.40
2023-04-24T12:28:05.099Z,54.80
2023-04-24T12:30:34.707Z,55.20
2023-04-24T12:33:01.916Z,54.50
2023-04-24T12:35:30.308Z,54.60
2023-04-24T12:38:05.982Z,55.60
2023-04-24T12:40:32.983Z,53.10
2023-04-24T12:43:00.001Z,56.20
2023-04-24T12:45:28.884Z,54.80
2023-04-24T12:47:56.067Z,56.30
2023-04-24T12:50:23.117Z,58.00
2023-04-24T12:52:50.052Z,57.80
2023-04-24T12:55:17.024Z,57.50
2023-04-24T12:57:44.014Z,55.00
2023-04-24T13:00:11.415Z,53.60
2023-04-24T13:02:38.625Z,53.90
2023-04-24T13:05:07.171Z,54.10
2023-04-24T13:07:34.485Z,54.20
2023-04-24T13:10:01.724Z,53.10
2023-04-24T13:12:28.750Z,54.80
2023-04-24T13:14:55.684Z,54.40
2023-04-24T13:17:23.153Z,53.00
2023-04-24T13:19:51.965Z,51.60
2023-04-24T13:22:19.876Z,53.50
2023-04-24T13:24:47.089Z,53.50
2023-04-24T13:27:14.127Z,52.10
2023-04-24T13:29:41.516Z,51.90
2023-04-24T13:32:09.561Z,53.60
2023-04-24T13:34:37.773Z,51.50
2023-04-24T13:37:05.920Z,52.60
2023-04-24T13:39:32.930Z,54.10
2023-04-24T13:42:00.462Z,54.40
2023-04-24T13:44:28.509Z,54.30
2023-04-24T13:46:57.967Z,53.80
2023-04-24T13:49:26.348Z,53.20
2023-04-24T13:51:54.379Z,53.00
2023-04-24T13:54:21.504Z,53.30
2023-04-24T13:56:48.502Z,52.70
2023-04-24T13:59:15.731Z,52.90
2023-04-24T14:01:42.687Z,53.10
2023-04-24T14:04:09.971Z,53.40
2023-04-24T14:06:37.027Z,51.40
2023-04-24T14:09:04.134Z,53.30
2023-04-24T14:11:31.278Z,51.70
2023-04-24T14:13:58.296Z,52.20
2023-04-24T14:16:25.881Z,52.60
2023-04-24T14:18:52.866Z,50.50
2023-04-24T14:21:19.795Z,53.30
2023-04-24T14:23:47.022Z,51.40
2023-04-24T14:26:14.363Z,52.30
2023-04-24T14:28:41.581Z,51.00
2023-04-24T14:31:09.231Z,50.40
2023-04-24T14:33:36.324Z,50.80
2023-04-24T14:36:04.011Z,51.60
2023-04-24T14:38:32.479Z,50.20
2023-04-24T14:41:07.106Z,50.00
2023-04-24T14:43:36.522Z,52.60
2023-04-24T14:46:05.755Z,53.20
2023-04-24T14:48:32.896Z,52.10
2023-04-24T14:51:00.107Z,49.30
2023-04-24T14:53:27.173Z,50.00
2023-04-24T14:55:54.846Z,53.10
2023-04-24T14:58:21.881Z,51.20
2023-04-24T15:00:51.229Z,51.10
2023-04-24T15:03:19.294Z,49.90
2023-04-24T15:05:46.816Z,49.90
2023-04-24T15:08:13.842Z,49.70
2023-04-24T15:10:41.032Z,50.70
2023-04-24T15:13:08.016Z,49.40
2023-04-24T15:15:35.051Z,51.00
2023-04-24T15:18:02.436Z,49.10
2023-04-24T15:20:29.479Z,50.50
2023-04-24T15:22:56.610Z,49.80
2023-04-24T15:25:23.719Z,50.50
2023-04-24T15:27:50.763Z,50.30
2023-04-24T15:30:17.874Z,51.20
2023-04-24T15:32:44.794Z,50.40
2023-04-24T15:35:11.772Z,51.40
2023-04-24T15:37:39.721Z,50.80
2023-04-24T15:40:08.642Z,51.20
2023-04-24T15:42:36.361Z,50.10
2023-04-24T15:45:04.495Z,50.60
2023-04-24T15:47:32.827Z,50.50
2023-04-24T15:49:59.817Z,51.00
2023-04-24T15:52:26.732Z,49.00
2023-04-24T15:54:54.042Z,49.10
2023-04-24T15:57:21.686Z,49.60
2023-04-24T15:59:48.991Z,50.80
2023-04-24T16:02:20.743Z,49.50
2023-04-24T16:04:49.793Z,49.40
2023-04-24T16:07:20.625Z,49.40
2023-04-24T16:09:47.833Z,48.70
2023-04-24T16:12:14.991Z,50.10
2023-04-24T16:14:42.003Z,49.00
2023-04-24T16:17:09.365Z,50.50
2023-04-24T16:19:36.503Z,49.80
2023-04-24T16:22:04.299Z,49.30
2023-04-24T16:24:31.442Z,50.20
2023-04-24T16:27:00.880Z,48.80
2023-04-24T16:29:28.867Z,48.40
2023-04-24T16:31:55.958Z,49.30
2023-04-24T16:34:22.928Z,48.90
2023-04-24T16:36:50.411Z,48.40
2023-04-24T16:39:17.373Z,48.40
2023-04-24T16:41:45.705Z,48.60
2023-04-24T16:44:13.775Z,49.70
2023-04-24T16:46:40.778Z,49.50
2023-04-24T16:49:07.939Z,51.00
2023-04-24T16:51:34.978Z,51.60
2023-04-24T16:54:01.924Z,52.20
2023-04-24T16:56:28.898Z,49.80
2023-04-24T16:58:56.608Z,49.30
2023-04-24T17:01:24.061Z,50.30
2023-04-24T17:03:51.604Z,49.40
2023-04-24T17:06:18.871Z,48.90
2023-04-24T17:08:46.384Z,49.80
2023-04-24T17:11:13.495Z,50.40
2023-04-24T17:13:40.629Z,49.30
2023-04-24T17:16:07.740Z,48.60
2023-04-24T17:18:34.794Z,49.20
2023-04-24T17:21:01.743Z,48.40
2023-04-24T17:23:28.897Z,49.40
2023-04-24T17:25:55.870Z,49.50
2023-04-24T17:28:28.948Z,50.20
2023-04-24T17:30:58.340Z,50.10
2023-04-24T17:33:30.414Z,49.60
2023-04-24T17:36:04.103Z,49.90
2023-04-24T17:38:31.255Z,49.70
2023-04-24T17:40:58.480Z,50.40
2023-04-24T17:43:26.294Z,49.70
2023-04-24T17:45:59.322Z,50.40
2023-04-24T17:48:29.619Z,50.40
2023-04-24T17:50:56.633Z,48.90
2023-04-24T17:53:23.785Z,49.90
2023-04-24T17:55:50.844Z,49.80
2023-04-24T17:58:19.119Z,49.80
2023-04-24T18:00:46.433Z,49.60
2023-04-24T18:03:13.635Z,49.90
2023-04-24T18:05:40.808Z,50.00
2023-04-24T18:08:07.872Z,49.50
2023-04-24T18:10:37.942Z,49.30
2023-04-24T18:13:05.693Z,50.40
2023-04-24T18:15:32.925Z,50.30
2023-04-24T18:18:00.449Z,50.90
2023-04-24T18:20:27.671Z,50.90
2023-04-24T18:22:54.787Z,50.60
2023-04-24T18:25:26.729Z,49.90
2023-04-24T18:27:55.872Z,47.80
2023-04-24T18:30:24.164Z,47.90
2023-04-24T18:32:53.435Z,48.90
2023-04-24T18:35:21.551Z,49.10
2023-04-24T18:37:49.142Z,50.60
2023-04-24T18:40:17.106Z,50.20
2023-04-24T18:42:44.960Z,50.60
2023-04-24T18:45:15.075Z,50.60
2023-04-24T18:47:43.071Z,52.30
2023-04-24T18:50:11.129Z,51.70
2023-04-24T18:52:38.159Z,51.70
2023-04-24T18:55:06.678Z,50.90
2023-04-24T18:57:33.954Z,49.80
2023-04-24T19:00:00.950Z,51.40
2023-04-24T19:02:28.135Z,51.20
2023-04-24T19:04:55.389Z,51.10
2023-04-24T19:07:22.412Z,51.60
2023-04-24T19:09:49.384Z,52.00
2023-04-24T19:12:16.516Z,51.60
2023-04-24T19:14:43.610Z,52.10
2023-04-24T19:17:11.133Z,51.80
2023-04-24T19:19:38.410Z,52.40
2023-04-24T19:22:07.641Z,53.20
2023-04-24T19:24:34.755Z,52.70
2023-04-24T19:27:02.258Z,52.50
2023-04-24T19:29:29.247Z,52.20
2023-04-24T19:31:57.928Z,52.60
2023-04-24T19:34:26.166Z,52.10
2023-04-24T19:36:53.244Z,52.20
2023-04-24T19:39:20.308Z,52.80
2023-04-24T19:41:47.513Z,52.60
2023-04-24T19:44:15.695Z,52.60
2023-04-24T19:46:43.301Z,52.50
2023-04-24T19:49:10.407Z,53.50
2023-04-24T19:51:37.849Z,53.40
2023-04-24T19:54:06.301Z,53.30
2023-04-24T19:56:33.698Z,53.80
2023-04-24T19:59:01.103Z,53.80
2023-04-24T20:01:28.674Z,53.70
2023-04-24T20:03:56.220Z,53.60
2023-04-24T20:06:23.398Z,53.60
2023-04-24T20:08:50.954Z,54.70
2023-04-24T20:11:18.145Z,55.00
2023-04-24T20:13:45.608Z,54.90
2023-04-24T20:16:12.878Z,55.30
2023-04-24T20:18:39.850Z,54.80
2023-04-24T20:21:06.898Z,55.00
2023-04-24T20:23:34.008Z,55.20
2023-04-24T20:26:01.358Z,54.80
2023-04-24T20:28:31.882Z,55.00
2023-04-24T20:30:59.857Z,54.90
2023-04-24T20:33:28.111Z,55.30
2023-04-24T20:35:55.662Z,55.10
2023-04-24T20:38:24.384Z,55.70
2023-04-24T20:43:23.022Z,56.00
2023-04-24T20:45:50.409Z,56.60
2023-04-24T20:48:17.551Z,56.40
2023-04-24T20:50:44.655Z,56.40
2023-04-24T20:53:11.578Z,56.50
2023-04-24T20:55:38.596Z,56.70
2023-04-24T20:58:05.604Z,57.10
2023-04-24T21:00:32.669Z,56.70
2023-04-24T21:02:59.954Z,57.30
2023-04-24T21:05:27.134Z,56.60
2023-04-24T21:07:56.088Z,56.10
2023-04-24T21:10:24.288Z,56.00
2023-04-24T21:12:51.361Z,56.10
2023-04-24T21:15:18.713Z,55.60
2023-04-24T21:17:46.000Z,56.70
2023-04-24T21:20:13.071Z,56.50
2023-04-24T21:22:40.223Z,56.50
2023-04-24T21:25:08.581Z,56.70
2023-04-24T21:27:36.300Z,56.80
2023-04-24T21:30:05.061Z,57.10
2023-04-24T21:32:32.131Z,57.20
2023-04-24T21:34:59.662Z,57.00
2023-04-24T21:37:27.295Z,57.30
2023-04-24T21:39:54.919Z,57.50
2023-04-24T21:42:22.005Z,57.40
2023-04-24T21:44:49.177Z,57.70
2023-04-24T21:47:16.135Z,57.60
2023-04-24T21:49:43.083Z,56.90
2023-04-24T21:52:10.141Z,56.90
2023-04-24T21:54:37.099Z,56.80
2023-04-24T21:57:04.193Z,56.60
2023-04-24T21:59:31.197Z,55.60
2023-04-24T22:01:58.543Z,55.80
2023-04-24T22:04:26.797Z,55.90
2023-04-24T22:06:56.725Z,55.90
2023-04-24T22:09:23.711Z,56.00
2023-04-24T22:11:51.038Z,56.60
2023-04-24T22:14:17.993Z,56.60
2023-04-24T22:16:46.079Z,56.40
2023-04-24T22:19:13.320Z,56.60
2023-04-24T22:21:41.114Z,56.60
2023-04-24T22:24:08.897Z,56.80
2023-04-24T22:26:35.890Z,56.40
2023-04-24T22:29:03.034Z,56.60
2023-04-24T22:31:30.121Z,56.80
2023-04-24T22:33:57.142Z,56.40
2023-04-24T22:36:24.131Z,56.70
2023-04-24T22:38:51.641Z,56.70
2023-04-24T22:41:18.838Z,56.20
2023-04-24T22:43:46.386Z,55.40
2023-04-24T22:46:13.620Z,55.80
2023-04-24T22:48:40.700Z,56.30
2023-04-24T22:51:07.678Z,56.80
2023-04-24T22:53:36.203Z,55.70
2023-04-24T22:56:03.416Z,55.10
2023-04-24T22:58:30.443Z,56.20
2023-04-24T23:00:57.426Z,56.20
2023-04-24T23:03:24.639Z,56.10
2023-04-24T23:05:51.691Z,55.50
2023-04-24T23:08:18.703Z,55.70
2023-04-24T23:10:45.756Z,55.40
2023-04-24T23:13:12.919Z,55.40
2023-04-24T23:15:39.947Z,55.70
2023-04-24T23:18:06.941Z,55.40
2023-04-24T23:20:33.921Z,55.00
2023-04-24T23:23:01.020Z,55.50
2023-04-24T23:25:27.907Z,55.20
2023-04-24T23:27:54.944Z,54.50
2023-04-24T23:30:21.987Z,55.50
2023-04-24T23:32:48.960Z,56.20
2023-04-24T23:35:15.912Z,55.30
2023-04-24T23:37:43.033Z,56.10
2023-04-24T23:40:10.596Z,55.80
2023-04-24T23:42:37.766Z,55.30
2023-04-24T23:45:05.728Z,56.00
2023-04-24T23:47:32.919Z,55.60
2023-04-24T23:49:59.924Z,55.50
2023-04-24T23:52:26.848Z,55.50
2023-04-24T23:54:53.791Z,55.60
2023-04-24T23:57:21.618Z,56.00
2023-04-24T23:59:48.626Z,55.30
